sensor_id;sensor_type;location;lat;lon;timestamp;pressure;altitude;pressure_sealevel;temperature;humidity
52855;BME280;38719;51.418;7.286;2023-04-27T00:01:43;100187.06;;;4.58;68.76
52855;BME280;38719;51.418;7.286;2023-04-27T00:04:11;100188.56;;;4.73;68.91
52855;BME280;38719;51.418;7.286;2023-04-27T00:06:41;100184.47;;;4.56;69.78
52855;BME280;38719;51.418;7.286;2023-04-27T00:09:08;100186.41;;;4.96;68.28
52855;BME280;38719;51.418;7.286;2023-04-27T00:11:37;100190.66;;;5.05;67.76
52855;BME280;38719;51.418;7.286;2023-04-27T00:14:04;100191.59;;;5.03;67.36
52855;BME280;38719;51.418;7.286;2023-04-27T00:16:32;100186.97;;;4.64;68.79
52855;BME280;38719;51.418;7.286;2023-04-27T00:18:59;100185.56;;;4.94;67.26
52855;BME280;38719;51.418;7.286;2023-04-27T00:21:27;100190.53;;;4.61;69.13
52855;BME280;38719;51.418;7.286;2023-04-27T00:23:56;100188.44;;;4.27;70.21
52855;BME280;38719;51.418;7.286;2023-04-27T00:26:23;100189.63;;;4.06;70.27
52855;BME280;38719;51.418;7.286;2023-04-27T00:28:52;100192.16;;;4.14;70.58
52855;BME280;38719;51.418;7.286;2023-04-27T00:31:19;100194.88;;;4.08;70.77
52855;BME280;38719;51.418;7.286;2023-04-27T00:33:47;100189.75;;;3.97;71.98
52855;BME280;38719;51.418;7.286;2023-04-27T00:36:14;100194.03;;;4.07;70.74
52855;BME280;38719;51.418;7.286;2023-04-27T00:38:42;100195.09;;;3.94;71.65
52855;BME280;38719;51.418;7.286;2023-04-27T00:41:10;100193.34;;;3.93;71.82
52855;BME280;38719;51.418;7.286;2023-04-27T00:43:41;100196.84;;;3.92;72.42
52855;BME280;38719;51.418;7.286;2023-04-27T00:46:11;100200.34;;;3.94;72.81
52855;BME280;38719;51.418;7.286;2023-04-27T00:48:39;100199.97;;;4.20;72.20
52855;BME280;38719;51.418;7.286;2023-04-27T00:51:07;100198.25;;;4.17;72.05
52855;BME280;38719;51.418;7.286;2023-04-27T00:53:35;100197.66;;;3.97;72.62
52855;BME280;38719;51.418;7.286;2023-04-27T00:56:03;100204.66;;;3.99;72.74
52855;BME280;38719;51.418;7.286;2023-04-27T00:58:32;100208.19;;;3.97;73.22
52855;BME280;38719;51.418;7.286;2023-04-27T01:01:00;100213.72;;;3.78;73.53
52855;BME280;38719;51.418;7.286;2023-04-27T01:03:29;100210.16;;;3.81;73.60
52855;BME280;38719;51.418;7.286;2023-04-27T01:05:57;100207.56;;;3.79;73.28
52855;BME280;38719;51.418;7.286;2023-04-27T01:08:26;100213.69;;;3.80;73.23
52855;BME280;38719;51.418;7.286;2023-04-27T01:10:54;100225.47;;;3.51;74.75
52855;BME280;38719;51.418;7.286;2023-04-27T01:13:22;100223.66;;;3.56;74.97
52855;BME280;38719;51.418;7.286;2023-04-27T01:15:51;100213.09;;;3.59;74.38
52855;BME280;38719;51.418;7.286;2023-04-27T01:18:18;100220.94;;;3.62;74.14
52855;BME280;38719;51.418;7.286;2023-04-27T01:20:46;100213.78;;;3.75;74.47
52855;BME280;38719;51.418;7.286;2023-04-27T01:23:15;100218.28;;;3.64;74.64
52855;BME280;38719;51.418;7.286;2023-04-27T01:25:43;100212.78;;;3.82;74.47
52855;BME280;38719;51.418;7.286;2023-04-27T01:28:10;100210.94;;;3.89;73.21
52855;BME280;38719;51.418;7.286;2023-04-27T01:30:38;100216.16;;;3.94;73.10
52855;BME280;38719;51.418;7.286;2023-04-27T01:33:05;100213.31;;;3.39;74.53
52855;BME280;38719;51.418;7.286;2023-04-27T01:35:33;100221.97;;;3.49;74.96
52855;BME280;38719;51.418;7.286;2023-04-27T01:38:00;100222.66;;;3.66;74.23
52855;BME280;38719;51.418;7.286;2023-04-27T01:40:29;100225.28;;;3.68;74.74
52855;BME280;38719;51.418;7.286;2023-04-27T01:42:57;100223.44;;;3.73;74.35
52855;BME280;38719;51.418;7.286;2023-04-27T01:45:24;100212.78;;;3.82;74.21
52855;BME280;38719;51.418;7.286;2023-04-27T01:47:52;100218.28;;;3.64;74.18
52855;BME280;38719;51.418;7.286;2023-04-27T01:50:20;100225.63;;;3.37;75.09
52855;BME280;38719;51.418;7.286;2023-04-27T01:52:47;100232.66;;;3.35;75.12
52855;BME280;38719;51.418;7.286;2023-04-27T01:55:15;100230.06;;;3.33;75.71
52855;BME280;38719;51.418;7.286;2023-04-27T01:57:44;100229.22;;;3.30;75.24
52855;BME280;38719;51.418;7.286;2023-04-27T02:00:12;100235.31;;;3.33;75.33
52855;BME280;38719;51.418;7.286;2023-04-27T02:02:40;100232.66;;;3.38;75.17
52855;BME280;38719;51.418;7.286;2023-04-27T02:05:08;100239.06;;;3.12;75.94
52855;BME280;38719;51.418;7.286;2023-04-27T02:07:36;100238.94;;;3.25;76.21
52855;BME280;38719;51.418;7.286;2023-04-27T02:10:04;100235.34;;;3.32;76.23
52855;BME280;38719;51.418;7.286;2023-04-27T02:12:32;100245.75;;;3.44;75.20
52855;BME280;38719;51.418;7.286;2023-04-27T02:15:01;100242.34;;;3.34;75.46
52855;BME280;38719;51.418;7.286;2023-04-27T02:17:28;100252.31;;;3.00;76.71
52855;BME280;38719;51.418;7.286;2023-04-27T02:19:57;100252.41;;;2.92;77.59
52855;BME280;38719;51.418;7.286;2023-04-27T02:22:24;100246.91;;;3.15;76.20
52855;BME280;38719;51.418;7.286;2023-04-27T02:24:52;100252.44;;;3.71;74.37
52855;BME280;38719;51.418;7.286;2023-04-27T02:27:19;100247.16;;;3.73;73.33
52855;BME280;38719;51.418;7.286;2023-04-27T02:29:47;100242.00;;;3.62;73.99
52855;BME280;38719;51.418;7.286;2023-04-27T02:32:16;100240.84;;;3.86;72.58
52855;BME280;38719;51.418;7.286;2023-04-27T02:34:44;100227.03;;;3.69;73.93
52855;BME280;38719;51.418;7.286;2023-04-27T02:37:11;100236.03;;;3.46;74.58
52855;BME280;38719;51.418;7.286;2023-04-27T02:39:39;100232.63;;;3.39;74.38
52855;BME280;38719;51.418;7.286;2023-04-27T02:42:06;100239.00;;;3.17;74.97
52855;BME280;38719;51.418;7.286;2023-04-27T02:44:34;100234.66;;;3.13;75.62
52855;BME280;38719;51.418;7.286;2023-04-27T02:47:01;100238.75;;;3.40;74.46
52855;BME280;38719;51.418;7.286;2023-04-27T02:49:30;100233.34;;;3.54;74.60
52855;BME280;38719;51.418;7.286;2023-04-27T02:51:58;100226.38;;;3.48;73.42
52855;BME280;38719;51.418;7.286;2023-04-27T02:54:25;100227.41;;;3.35;74.65
52855;BME280;38719;51.418;7.286;2023-04-27T02:56:53;100229.16;;;3.33;74.33
52855;BME280;38719;51.418;7.286;2023-04-27T02:59:20;100232.75;;;3.27;74.62
52855;BME280;38719;51.418;7.286;2023-04-27T03:01:48;100234.38;;;3.37;74.51
52855;BME280;38719;51.418;7.286;2023-04-27T03:04:15;100234.63;;;3.14;75.06
52855;BME280;38719;51.418;7.286;2023-04-27T03:06:44;100234.03;;;2.86;76.84
52855;BME280;38719;51.418;7.286;2023-04-27T03:09:12;100233.31;;;2.67;77.36
52855;BME280;38719;51.418;7.286;2023-04-27T03:11:40;100229.69;;;2.80;76.75
52855;BME280;38719;51.418;7.286;2023-04-27T03:14:08;100231.16;;;3.09;75.85
52855;BME280;38719;51.418;7.286;2023-04-27T03:16:35;100221.44;;;3.17;74.61
52855;BME280;38719;51.418;7.286;2023-04-27T03:19:03;100214.97;;;3.49;73.63
52855;BME280;38719;51.418;7.286;2023-04-27T03:21:30;100214.91;;;3.52;74.20
52855;BME280;38719;51.418;7.286;2023-04-27T03:23:59;100213.94;;;3.60;72.77
52855;BME280;38719;51.418;7.286;2023-04-27T03:26:27;100209.84;;;3.34;73.43
52855;BME280;38719;51.418;7.286;2023-04-27T03:28:54;100209.16;;;3.18;74.91
52855;BME280;38719;51.418;7.286;2023-04-27T03:31:22;100204.59;;;3.34;73.97
52855;BME280;38719;51.418;7.286;2023-04-27T03:33:49;100209.84;;;3.34;73.87
52855;BME280;38719;51.418;7.286;2023-04-27T03:36:17;100214.00;;;3.55;73.52
52855;BME280;38719;51.418;7.286;2023-04-27T03:38:44;100213.00;;;3.64;73.04
52855;BME280;38719;51.418;7.286;2023-04-27T03:41:13;100215.06;;;3.40;73.73
52855;BME280;38719;51.418;7.286;2023-04-27T03:43:41;100214.88;;;3.55;73.46
52855;BME280;38719;51.418;7.286;2023-04-27T03:46:08;100224.56;;;3.53;73.37
52855;BME280;38719;51.418;7.286;2023-04-27T03:48:36;100227.22;;;3.49;73.12
52855;BME280;38719;51.418;7.286;2023-04-27T03:51:04;100227.31;;;3.43;73.07
52855;BME280;38719;51.418;7.286;2023-04-27T03:53:32;100230.03;;;3.35;74.03
52855;BME280;38719;51.418;7.286;2023-04-27T03:56:00;100235.94;;;3.55;73.51
52855;BME280;38719;51.418;7.286;2023-04-27T03:58:29;100233.41;;;3.48;72.84
52855;BME280;38719;51.418;7.286;2023-04-27T04:00:57;100235.56;;;3.88;72.75
52855;BME280;38719;51.418;7.286;2023-04-27T04:03:24;100233.38;;;4.19;71.74
52855;BME280;38719;51.418;7.286;2023-04-27T04:05:52;100237.09;;;4.03;71.29
52855;BME280;38719;51.418;7.286;2023-04-27T04:08:19;100233.94;;;3.78;72.19
52855;BME280;38719;51.418;7.286;2023-04-27T04:10:47;100246.09;;;3.88;72.50
52855;BME280;38719;51.418;7.286;2023-04-27T04:13:14;100241.38;;;4.13;71.43
52855;BME280;38719;51.418;7.286;2023-04-27T04:15:43;100242.25;;;4.14;71.13
52855;BME280;38719;51.418;7.286;2023-04-27T04:18:11;100243.78;;;4.29;70.76
52855;BME280;38719;51.418;7.286;2023-04-27T04:20:38;100247.22;;;4.34;70.10
52855;BME280;38719;51.418;7.286;2023-04-27T04:23:06;100251.97;;;4.09;70.54
52855;BME280;38719;51.418;7.286;2023-04-27T04:25:33;100254.41;;;4.23;70.66
52855;BME280;38719;51.418;7.286;2023-04-27T04:28:01;100256.50;;;3.99;71.75
52855;BME280;38719;51.418;7.286;2023-04-27T04:30:29;100254.38;;;4.26;70.40
52855;BME280;38719;51.418;7.286;2023-04-27T04:32:57;100252.03;;;4.65;68.65
52855;BME280;38719;51.418;7.286;2023-04-27T04:35:25;100259.50;;;4.35;69.53
52855;BME280;38719;51.418;7.286;2023-04-27T04:37:52;100257.81;;;4.29;70.13
52855;BME280;38719;51.418;7.286;2023-04-27T04:40:20;100254.63;;;4.09;71.05
52855;BME280;38719;51.418;7.286;2023-04-27T04:42:48;100257.81;;;4.31;69.85
52855;BME280;38719;51.418;7.286;2023-04-27T04:45:16;100253.47;;;4.28;69.94
52855;BME280;38719;51.418;7.286;2023-04-27T04:47:43;100252.44;;;4.39;69.72
52855;BME280;38719;51.418;7.286;2023-04-27T04:50:14;100245.09;;;4.58;69.94
52855;BME280;38719;51.418;7.286;2023-04-27T04:52:41;100249.38;;;4.65;69.04
52855;BME280;38719;51.418;7.286;2023-04-27T04:55:09;100251.41;;;4.47;68.96
52855;BME280;38719;51.418;7.286;2023-04-27T04:57:37;100250.91;;;4.20;70.48
52855;BME280;38719;51.418;7.286;2023-04-27T05:00:05;100247.47;;;4.15;70.50
52855;BME280;38719;51.418;7.286;2023-04-27T05:02:36;100256.19;;;4.22;70.99
52855;BME280;38719;51.418;7.286;2023-04-27T05:05:04;100253.44;;;4.30;70.62
52855;BME280;38719;51.418;7.286;2023-04-27T05:07:34;100252.53;;;4.29;70.69
52855;BME280;38719;51.418;7.286;2023-04-27T05:10:01;100246.06;;;4.54;69.50
52855;BME280;38719;51.418;7.286;2023-04-27T05:12:29;100251.13;;;5.19;68.11
52855;BME280;38719;51.418;7.286;2023-04-27T05:14:57;100252.53;;;5.39;66.90
52855;BME280;38719;51.418;7.286;2023-04-27T05:17:25;100258.72;;;4.86;67.77
52855;BME280;38719;51.418;7.286;2023-04-27T05:19:52;100260.38;;;5.42;67.25
52855;BME280;38719;51.418;7.286;2023-04-27T05:22:20;100263.59;;;5.58;66.31
52855;BME280;38719;51.418;7.286;2023-04-27T05:24:49;100264.03;;;5.80;65.31
52855;BME280;38719;51.418;7.286;2023-04-27T05:27:17;100264.56;;;5.54;66.67
52855;BME280;38719;51.418;7.286;2023-04-27T05:29:44;100271.88;;;5.85;65.48
52855;BME280;38719;51.418;7.286;2023-04-27T05:32:12;100267.13;;;6.02;64.64
52855;BME280;38719;51.418;7.286;2023-04-27T05:34:39;100272.28;;;6.08;64.62
52855;BME280;38719;51.418;7.286;2023-04-27T05:37:09;100277.66;;;6.05;65.18
52855;BME280;38719;51.418;7.286;2023-04-27T05:39:37;100271.84;;;6.30;64.46
52855;BME280;38719;51.418;7.286;2023-04-27T05:42:06;100279.28;;;6.52;62.93
52855;BME280;38719;51.418;7.286;2023-04-27T05:44:34;100288.91;;;6.15;64.29
52855;BME280;38719;51.418;7.286;2023-04-27T05:47:01;100293.81;;;6.34;63.28
52855;BME280;38719;51.418;7.286;2023-04-27T05:49:29;100292.50;;;6.52;63.37
52855;BME280;38719;51.418;7.286;2023-04-27T05:51:56;100289.91;;;6.50;62.92
52855;BME280;38719;51.418;7.286;2023-04-27T05:54:25;100283.84;;;6.83;62.37
52855;BME280;38719;51.418;7.286;2023-04-27T05:56:52;100296.28;;;6.79;62.81
52855;BME280;38719;51.418;7.286;2023-04-27T05:59:21;100300.78;;;6.75;64.07
52855;BME280;38719;51.418;7.286;2023-04-27T06:01:49;100302.53;;;6.76;63.00
52855;BME280;38719;51.418;7.286;2023-04-27T06:04:16;100305.28;;;6.72;62.77
52855;BME280;38719;51.418;7.286;2023-04-27T06:06:44;100305.72;;;6.91;62.69
52855;BME280;38719;51.418;7.286;2023-04-27T06:09:11;100305.06;;;6.81;63.16
52855;BME280;38719;51.418;7.286;2023-04-27T06:11:40;100308.47;;;6.86;63.25
52855;BME280;38719;51.418;7.286;2023-04-27T06:14:08;100307.38;;;6.95;62.53
52855;BME280;38719;51.418;7.286;2023-04-27T06:16:37;100305.63;;;6.94;62.73
52855;BME280;38719;51.418;7.286;2023-04-27T06:19:05;100310.50;;;7.11;61.74
52855;BME280;38719;51.418;7.286;2023-04-27T06:21:33;100303.06;;;6.91;62.14
52855;BME280;38719;51.418;7.286;2023-04-27T06:24:01;100306.66;;;7.24;61.46
52855;BME280;38719;51.418;7.286;2023-04-27T06:26:29;100305.16;;;7.13;61.97
52855;BME280;38719;51.418;7.286;2023-04-27T06:28:56;100304.53;;;7.37;60.90
52855;BME280;38719;51.418;7.286;2023-04-27T06:31:24;100307.19;;;7.39;60.09
52855;BME280;38719;51.418;7.286;2023-04-27T06:33:53;100300.50;;;7.57;60.63
52855;BME280;38719;51.418;7.286;2023-04-27T06:36:21;100304.16;;;7.53;59.26
52855;BME280;38719;51.418;7.286;2023-04-27T06:38:49;100300.91;;;7.74;60.04
52855;BME280;38719;51.418;7.286;2023-04-27T06:41:21;100300.00;;;7.75;59.05
52855;BME280;38719;51.418;7.286;2023-04-27T06:43:48;100302.63;;;7.75;59.22
52855;BME280;38719;51.418;7.286;2023-04-27T06:46:16;100306.16;;;8.07;57.33
52855;BME280;38719;51.418;7.286;2023-04-27T06:48:44;100303.03;;;7.93;57.56
52855;BME280;38719;51.418;7.286;2023-04-27T06:51:14;100295.84;;;7.98;56.49
52855;BME280;38719;51.418;7.286;2023-04-27T06:53:41;100292.28;;;8.29;54.99
52855;BME280;38719;51.418;7.286;2023-04-27T06:56:10;100298.72;;;8.20;54.64
52855;BME280;38719;51.418;7.286;2023-04-27T06:58:38;100305.19;;;8.10;54.98
52855;BME280;38719;51.418;7.286;2023-04-27T07:01:06;100291.97;;;8.38;53.79
52855;BME280;38719;51.418;7.286;2023-04-27T07:03:34;100295.91;;;8.25;53.89
52855;BME280;38719;51.418;7.286;2023-04-27T07:06:02;100294.44;;;8.45;53.27
52855;BME280;38719;51.418;7.286;2023-04-27T07:08:31;100284.25;;;8.61;52.90
52855;BME280;38719;51.418;7.286;2023-04-27T07:10:59;100284.56;;;8.51;53.21
52855;BME280;38719;51.418;7.286;2023-04-27T07:13:26;100286.97;;;8.29;54.57
52855;BME280;38719;51.418;7.286;2023-04-27T07:15:55;100288.66;;;8.62;53.41
52855;BME280;38719;51.418;7.286;2023-04-27T07:18:23;100284.13;;;8.65;53.13
52855;BME280;38719;51.418;7.286;2023-04-27T07:20:53;100287.81;;;8.88;53.41
52855;BME280;38719;51.418;7.286;2023-04-27T07:23:21;100280.34;;;8.99;51.92
52855;BME280;38719;51.418;7.286;2023-04-27T07:25:50;100280.56;;;8.93;51.82
52855;BME280;38719;51.418;7.286;2023-04-27T07:28:18;100291.09;;;8.96;52.46
52855;BME280;38719;51.418;7.286;2023-04-27T07:30:45;100289.09;;;8.76;51.61
52855;BME280;38719;51.418;7.286;2023-04-27T07:33:13;100286.19;;;8.84;51.63
52855;BME280;38719;51.418;7.286;2023-04-27T07:35:40;100289.59;;;9.14;51.57
52855;BME280;38719;51.418;7.286;2023-04-27T07:38:08;100284.41;;;9.11;51.25
52855;BME280;38719;51.418;7.286;2023-04-27T07:40:36;100288.03;;;9.09;51.77
52855;BME280;38719;51.418;7.286;2023-04-27T07:43:05;100289.72;;;9.11;51.06
52855;BME280;38719;51.418;7.286;2023-04-27T07:45:32;100275.56;;;8.84;52.23
52855;BME280;38719;51.418;7.286;2023-04-27T07:48:02;100289.59;;;9.14;51.92
52855;BME280;38719;51.418;7.286;2023-04-27T07:50:30;100290.50;;;9.40;51.70
52855;BME280;38719;51.418;7.286;2023-04-27T07:52:58;100291.72;;;9.57;51.08
52855;BME280;38719;51.418;7.286;2023-04-27T07:55:26;100288.16;;;9.56;50.99
52855;BME280;38719;51.418;7.286;2023-04-27T07:57:55;100291.75;;;9.03;50.35
52855;BME280;38719;51.418;7.286;2023-04-27T08:00:25;100289.78;;;9.10;50.45
52855;BME280;38719;51.418;7.286;2023-04-27T08:02:53;100294.19;;;9.09;51.63
52855;BME280;38719;51.418;7.286;2023-04-27T08:05:21;100295.59;;;9.21;51.54
52855;BME280;38719;51.418;7.286;2023-04-27T08:07:49;100296.47;;;9.47;50.69
52855;BME280;38719;51.418;7.286;2023-04-27T08:10:20;100292.34;;;9.38;50.79
52855;BME280;38719;51.418;7.286;2023-04-27T08:12:47;100292.22;;;9.41;50.66
52855;BME280;38719;51.418;7.286;2023-04-27T08:15:15;100293.47;;;9.56;50.63
52855;BME280;38719;51.418;7.286;2023-04-27T08:17:44;100291.16;;;9.72;50.33
52855;BME280;38719;51.418;7.286;2023-04-27T08:20:12;100283.38;;;9.91;50.33
52855;BME280;38719;51.418;7.286;2023-04-27T08:22:40;100286.97;;;9.90;50.57
52855;BME280;38719;51.418;7.286;2023-04-27T08:25:08;100291.97;;;9.98;50.29
52855;BME280;38719;51.418;7.286;2023-04-27T08:27:36;100288.09;;;10.07;49.79
52855;BME280;38719;51.418;7.286;2023-04-27T08:30:05;100286.03;;;10.15;50.00
52855;BME280;38719;51.418;7.286;2023-04-27T08:32:33;100285.44;;;10.30;48.90
52855;BME280;38719;51.418;7.286;2023-04-27T08:35:02;100286.34;;;10.29;48.70
52855;BME280;38719;51.418;7.286;2023-04-27T08:37:30;100285.25;;;10.35;49.62
52855;BME280;38719;51.418;7.286;2023-04-27T08:39:58;100271.34;;;10.52;48.86
52855;BME280;38719;51.418;7.286;2023-04-27T08:42:25;100270.03;;;10.62;48.37
52855;BME280;38719;51.418;7.286;2023-04-27T08:44:53;100268.22;;;10.41;47.62
52855;BME280;38719;51.418;7.286;2023-04-27T08:47:20;100272.63;;;10.64;48.73
52855;BME280;38719;51.418;7.286;2023-04-27T08:50:09;100265.75;;;10.80;47.24
52855;BME280;38719;51.418;7.286;2023-04-27T08:52:36;100271.63;;;10.89;46.37
52855;BME280;38719;51.418;7.286;2023-04-27T08:55:05;100258.78;;;10.99;47.57
52855;BME280;38719;51.418;7.286;2023-04-27T08:57:33;100263.59;;;11.11;47.15
52855;BME280;38719;51.418;7.286;2023-04-27T09:00:01;100276.69;;;11.38;46.95
52855;BME280;38719;51.418;7.286;2023-04-27T09:02:32;100267.50;;;11.45;45.92
52855;BME280;38719;51.418;7.286;2023-04-27T09:05:01;100266.75;;;11.41;45.76
52855;BME280;38719;51.418;7.286;2023-04-27T09:07:30;100267.50;;;11.45;45.55
52855;BME280;38719;51.418;7.286;2023-04-27T09:10:02;100269.72;;;11.75;46.19
52855;BME280;38719;51.418;7.286;2023-04-27T09:12:30;100261.97;;;11.89;45.98
52855;BME280;38719;51.418;7.286;2023-04-27T09:14:58;100262.53;;;11.77;44.33
52855;BME280;38719;51.418;7.286;2023-04-27T09:17:26;100258.78;;;12.02;44.68
52855;BME280;38719;51.418;7.286;2023-04-27T09:20:06;100251.03;;;12.15;44.84
52855;BME280;38719;51.418;7.286;2023-04-27T09:22:43;100255.59;;;12.32;45.06
52855;BME280;38719;51.418;7.286;2023-04-27T09:25:21;100252.34;;;12.06;43.43
52855;BME280;38719;51.418;7.286;2023-04-27T09:27:49;100242.31;;;12.49;44.57
52855;BME280;38719;51.418;7.286;2023-04-27T09:30:17;100236.44;;;12.60;42.95
52855;BME280;38719;51.418;7.286;2023-04-27T09:32:52;100241.91;;;12.57;43.43
52855;BME280;38719;51.418;7.286;2023-04-27T09:35:21;100235.56;;;12.60;43.24
52855;BME280;38719;51.418;7.286;2023-04-27T09:37:51;100236.13;;;12.66;42.67
52855;BME280;38719;51.418;7.286;2023-04-27T09:40:20;100233.19;;;12.90;43.42
52855;BME280;38719;51.418;7.286;2023-04-27T09:42:52;100230.59;;;12.88;41.09
52855;BME280;38719;51.418;7.286;2023-04-27T09:45:19;100228.63;;;12.92;42.64
52855;BME280;38719;51.418;7.286;2023-04-27T09:47:47;100229.97;;;13.18;41.94
52855;BME280;38719;51.418;7.286;2023-04-27T09:50:15;100226.28;;;13.21;39.93
52855;BME280;38719;51.418;7.286;2023-04-27T09:52:43;100229.34;;;13.48;41.11
52855;BME280;38719;51.418;7.286;2023-04-27T09:55:16;100226.28;;;13.38;39.46
52855;BME280;38719;51.418;7.286;2023-04-27T09:57:52;100224.28;;;13.60;39.02
52855;BME280;38719;51.418;7.286;2023-04-27T10:00:31;100226.91;;;13.61;37.30
52855;BME280;38719;51.418;7.286;2023-04-27T10:03:09;100223.56;;;13.90;38.33
52855;BME280;38719;51.418;7.286;2023-04-27T10:05:56;100228.69;;;14.10;38.23
52855;BME280;38719;51.418;7.286;2023-04-27T10:08:33;100224.97;;;14.13;37.13
52855;BME280;38719;51.418;7.286;2023-04-27T10:11:12;100223.94;;;14.15;37.30
52855;BME280;38719;51.418;7.286;2023-04-27T10:13:49;100217.91;;;14.28;37.65
52855;BME280;38719;51.418;7.286;2023-04-27T10:16:21;100216.63;;;14.35;36.77
52855;BME280;38719;51.418;7.286;2023-04-27T10:18:53;100219.34;;;13.85;35.77
52855;BME280;38719;51.418;7.286;2023-04-27T10:21:21;100214.94;;;14.00;37.62
52855;BME280;38719;51.418;7.286;2023-04-27T10:23:50;100211.78;;;14.10;36.52
52855;BME280;38719;51.418;7.286;2023-04-27T10:26:23;100209.13;;;14.26;37.50
52855;BME280;38719;51.418;7.286;2023-04-27T10:28:59;100199.94;;;14.30;38.65
52855;BME280;38719;51.418;7.286;2023-04-27T10:31:30;100196.81;;;14.54;38.07
52855;BME280;38719;51.418;7.286;2023-04-27T10:34:06;100193.91;;;14.26;36.78
52855;BME280;38719;51.418;7.286;2023-04-27T10:36:34;100193.88;;;14.74;36.22
52855;BME280;38719;51.418;7.286;2023-04-27T10:39:13;100192.34;;;14.70;36.45
52855;BME280;38719;51.418;7.286;2023-04-27T10:41:50;100182.91;;;14.31;37.04
52855;BME280;38719;51.418;7.286;2023-04-27T10:44:20;100179.47;;;14.29;37.45
52855;BME280;38719;51.418;7.286;2023-04-27T10:46:51;100184.28;;;14.70;35.88
52855;BME280;38719;51.418;7.286;2023-04-27T10:49:19;100171.81;;;14.99;37.17
52855;BME280;38719;51.418;7.286;2023-04-27T10:51:48;100175.53;;;15.27;36.03
52855;BME280;38719;51.418;7.286;2023-04-27T10:54:16;100168.31;;;15.13;35.59
52855;BME280;38719;51.418;7.286;2023-04-27T10:56:44;100171.97;;;15.12;34.61
52855;BME280;38719;51.418;7.286;2023-04-27T10:59:13;100177.38;;;15.56;34.52
52855;BME280;38719;51.418;7.286;2023-04-27T11:01:41;100171.91;;;15.57;35.11
52855;BME280;38719;51.418;7.286;2023-04-27T11:04:08;100163.25;;;15.38;33.78
52855;BME280;38719;51.418;7.286;2023-04-27T11:06:43;100161.44;;;15.67;34.02
52855;BME280;38719;51.418;7.286;2023-04-27T11:09:11;100170.00;;;15.88;34.06
52855;BME280;38719;51.418;7.286;2023-04-27T11:11:43;100165.47;;;15.89;35.03
52855;BME280;38719;51.418;7.286;2023-04-27T11:14:18;100157.41;;;15.89;33.97
52855;BME280;38719;51.418;7.286;2023-04-27T11:16:47;100161.59;;;16.07;34.80
52855;BME280;38719;51.418;7.286;2023-04-27T11:19:14;100163.38;;;15.51;33.58
52855;BME280;38719;51.418;7.286;2023-04-27T11:21:42;100156.97;;;15.82;33.41
52855;BME280;38719;51.418;7.286;2023-04-27T11:24:10;100159.69;;;16.09;33.31
52855;BME280;38719;51.418;7.286;2023-04-27T11:26:40;100154.84;;;16.29;33.87
52855;BME280;38719;51.418;7.286;2023-04-27T11:29:09;100158.94;;;15.78;31.37
52855;BME280;38719;51.418;7.286;2023-04-27T11:31:42;100161.19;;;14.98;32.82
52855;BME280;38719;51.418;7.286;2023-04-27T11:34:15;100159.03;;;15.62;32.80
52855;BME280;38719;51.418;7.286;2023-04-27T11:36:42;100153.50;;;16.22;30.97
52855;BME280;38719;51.418;7.286;2023-04-27T11:39:15;100154.28;;;16.24;33.39
52855;BME280;38719;51.418;7.286;2023-04-27T11:41:44;100158.28;;;15.89;33.48
52855;BME280;38719;51.418;7.286;2023-04-27T11:44:12;100156.16;;;16.36;32.72
52855;BME280;38719;51.418;7.286;2023-04-27T11:46:43;100151.44;;;16.13;31.44
52855;BME280;38719;51.418;7.286;2023-04-27T11:49:11;100156.66;;;15.87;34.14
52855;BME280;38719;51.418;7.286;2023-04-27T11:51:39;100151.63;;;16.09;33.26
52855;BME280;38719;51.418;7.286;2023-04-27T11:54:06;100153.03;;;15.88;32.16
52855;BME280;38719;51.418;7.286;2023-04-27T11:56:35;100139.00;;;15.83;32.26
52855;BME280;38719;51.418;7.286;2023-04-27T11:59:03;100137.88;;;15.87;32.06
52855;BME280;38719;51.418;7.286;2023-04-27T12:01:32;100133.84;;;16.21;32.13
52855;BME280;38719;51.418;7.286;2023-04-27T12:04:05;100139.09;;;15.67;32.55
52855;BME280;38719;51.418;7.286;2023-04-27T12:06:33;100130.81;;;16.13;31.53
52855;BME280;38719;51.418;7.286;2023-04-27T12:09:00;100121.41;;;16.06;31.98
52855;BME280;38719;51.418;7.286;2023-04-27T12:11:29;100131.34;;;15.47;33.30
52855;BME280;38719;51.418;7.286;2023-04-27T12:13:57;100129.25;;;15.38;32.40
52855;BME280;38719;51.418;7.286;2023-04-27T12:16:24;100119.94;;;16.15;32.63
52855;BME280;38719;51.418;7.286;2023-04-27T12:18:52;100115.63;;;16.12;30.94
52855;BME280;38719;51.418;7.286;2023-04-27T12:21:21;100117.03;;;15.76;33.32
52855;BME280;38719;51.418;7.286;2023-04-27T12:23:49;100113.75;;;16.54;32.81
52855;BME280;38719;51.418;7.286;2023-04-27T12:26:16;100107.03;;;16.74;31.38
52855;BME280;38719;51.418;7.286;2023-04-27T12:28:45;100106.13;;;17.14;31.64
52855;BME280;38719;51.418;7.286;2023-04-27T12:31:14;100110.75;;;17.12;29.84
52855;BME280;38719;51.418;7.286;2023-04-27T12:33:43;100102.50;;;16.88;30.18
52855;BME280;38719;51.418;7.286;2023-04-27T12:36:11;100090.66;;;16.24;32.85
52855;BME280;38719;51.418;7.286;2023-04-27T12:38:40;100108.34;;;16.41;32.12
52855;BME280;38719;51.418;7.286;2023-04-27T12:41:08;100095.13;;;16.91;30.59
52855;BME280;38719;51.418;7.286;2023-04-27T12:43:35;100103.63;;;17.37;30.29
52855;BME280;38719;51.418;7.286;2023-04-27T12:46:03;100093.28;;;17.94;31.48
52855;BME280;38719;51.418;7.286;2023-04-27T12:48:31;100101.69;;;17.39;29.99
52855;BME280;38719;51.418;7.286;2023-04-27T12:50:58;100100.75;;;17.14;29.95
52855;BME280;38719;51.418;7.286;2023-04-27T12:53:27;100095.56;;;17.50;31.46
52855;BME280;38719;51.418;7.286;2023-04-27T12:55:55;100096.19;;;17.40;30.89
52855;BME280;38719;51.418;7.286;2023-04-27T12:58:25;100091.91;;;17.38;30.53
52855;BME280;38719;51.418;7.286;2023-04-27T13:00:54;100083.28;;;17.83;30.36
52855;BME280;38719;51.418;7.286;2023-04-27T13:03:22;100084.69;;;18.13;29.71
52855;BME280;38719;51.418;7.286;2023-04-27T13:05:50;100080.97;;;18.02;29.92